Tiempo atmosférico en la estación meteorológica de Becerreá, Lugo (1080 m.)



Fecha
DESCASC
Temp. máxima en grados centígrados (hora)
DESCASC
Temp. mínima en grados centígrados (hora)
DESCASC
Temp. media en grados centígrados
DESCASC
Racha de viento máxima en m/sg (hora)
DESCASC
Velocidad máxima media en intervalos de 10 minutos(hora)
DESCASC
Precipitaciones diarias en mm
DESCASC
Precipitaciones de 00:00 a 06:00 en mm
DESCASC
Precipitaciones de 06:00 a 12:00 en mm
DESCASC
Precipitaciones de 12:00 a 18:00 en mm
DESCASC
Precipitaciones de 18:00 a 24:00 en mm
DESCASC
28-02-2021 -- (--) -- (--) -- -- (--) -- (--) -- 0 0 0 --
27-02-2021 11.5 (16:10) 3.6 (08:00) 7.5 5.28 (09:50) 2.22 (23:10) 0 0 0 0 0
26-02-2021 11.2 (16:20) 3.5 (03:40) 7.3 6.94 (05:50) 2.78 (04:20) 0 0 0 0 0
25-02-2021 8.5 (00:00) 2.7 (00:00) 5.6 8.33 (04:20) 5.56 (04:10) 10.2 7.2 2.6 0.4 0
24-02-2021 12.5 (14:50) 6.2 (00:00) 9.3 14.17 (13:00) 6.39 (08:30) 0 0 0 0 0
23-02-2021 11.5 (13:30) 3 (00:00) 7.3 9.17 (08:40) 4.72 (08:30) 0 0 0 0 0
22-02-2021 8.1 (16:20) -0.6 (-00:0) 3.8 5.83 (22:10) 3.61 (22:40) 0.2 0 0.2 0 0
21-02-2021 4.6 (00:00) -1.2 (-00:0) 1.7 10.28 (05:40) 4.72 (09:00) 18 3 3.4 8.6 3
20-02-2021 8.5 (09:40) 4.6 (00:00) 6.5 18.06 (10:10) 7.78 (10:10) 11.8 0 1.4 5.4 5
19-02-2021 10.1 (16:20) 4.4 (00:00) 7.3 19.17 (18:00) 6.67 (23:59) 0 0 0 0 0
18-02-2021 6.9 (01:20) 3.3 (00:00) 5.1 18.89 (04:30) 6.94 (01:30) 49.4 25.4 22.2 1.8 0
17-02-2021 9.8 (14:30) 3.5 (00:00) 6.7 16.39 (22:20) 7.5 (22:50) 9 0 0 0 9
16-02-2021 9.9 (00:00) 3.7 (00:00) 6.8 14.72 (07:10) 6.67 (06:20) 12.2 0 12 0.2 0
15-02-2021 14 (13:40) 8.7 (00:00) 11.3 14.44 (23:50) 6.67 (02:20) 0 0 0 0 0
14-02-2021 12.7 (16:00) 6.6 (00:00) 9.6 13.06 (21:40) 6.39 (20:30) 0.2 0 0 0.2 0
13-02-2021 9.2 (13:30) 3.6 (00:00) 6.4 9.72 (12:40) 4.44 (22:50) 0 0 0 0 0
12-02-2021 7.8 (16:50) 4.4 (00:00) 6.1 11.67 (03:50) 4.72 (07:20) 7.8 4.8 3 0 0
11-02-2021 10.3 (13:20) 5.8 (00:00) 8.1 13.06 (08:40) 5.28 (12:20) 16.8 0.8 0.2 0.6 15.2
10-02-2021 6.8 (16:30) 0.6 (00:00) 3.7 13.61 (23:50) 4.17 (04:30) 4.2 3 0.2 0 1
09-02-2021 4.2 (06:50) -0.1 (00:00) 2 17.22 (08:50) 7.5 (06:00) 23 2.4 10.6 3 7
08-02-2021 4.5 (00:10) 1.4 (00:00) 2.9 14.17 (21:40) 5.56 (21:40) 17 7.4 5.2 2.4 2
07-02-2021 4.9 (18:50) -1.9 (-00:0) 1.5 15.83 (19:10) 5.83 (20:40) 7.2 0 1 2.8 3.4
06-02-2021 2.4 (00:00) -0.8 (-00:0) 0.8 11.11 (06:30) 4.72 (02:50) 3.8 3 0.8 0 0
05-02-2021 4.1 (14:40) 1.8 (00:00) 2.9 11.11 (22:20) 4.44 (23:40) 6.2 0 0 0.6 5.6
04-02-2021 6 (15:50) 2.9 (00:00) 4.5 14.72 (00:30) 5.56 (00:50) 0 0 0 0 0
03-02-2021 7.7 (00:00) 2.9 (00:00) 5.3 18.06 (06:10) 6.94 (01:10) 11.8 6.6 3.8 0.2 1.2
02-02-2021 9.1 (15:50) 6.4 (00:00) 7.8 18.89 (22:10) 8.33 (20:40) 19 0.4 3 6.4 9.2
01-02-2021 8.1 (20:30) 5.7 (00:00) 6.9 14.72 (20:40) 5 (23:30) 2.2 0.2 1.2 0.2 0.6
31-01-2021 9.3 (15:30) 3 (00:00) 6.2 16.94 (20:50) 6.67 (20:50) -- -- 5.6 0.2 0.2
30-01-2021 7.3 (00:00) 1.5 (00:00) 4.4 22.78 (15:40) 7.5 (14:20) -- -- -- -- --

Gráficas

Temp. máximas Temp. mínimas Temp. medias Precipitaciones Rachas de viento máximas Velocidades máximas media en intervalos de 10 minutos

Datos horarios

Fecha y hora oficial Temperatura (ºC) Velocidad del viento (km/h) Dirección del viento Racha (km/h) Dirección de racha Precipitación (mm) Presión (hPa) Tendencia (hPa) Humedad (%)
2021-02-28 23:00:00 5.8 8 Sudeste 17 Sudeste 0 -- -- 76
2021-02-28 22:00:00 4.3 7 Sudeste 10 Este 0 -- -- 89
2021-02-28 21:00:00 4.8 6 Sudeste 10 Sudeste 0 -- -- 84
2021-02-28 20:00:00 5.4 5 Este 10 Sudeste 0 -- -- 80
2021-02-28 19:00:00 7.2 5 Norte 9 Norte 0 -- -- 73
2021-02-28 18:00:00 9.9 2 Este 5 Este 0 -- -- 67
2021-02-28 17:00:00 9.6 3 Nordeste 8 Nordeste 0 -- -- 68
2021-02-28 16:00:00 9.1 5 Nordeste 12 Norte 0 -- -- 72
2021-02-28 15:00:00 8.7 3 Este 10 Nordeste 0 -- -- 75
2021-02-28 14:00:00 7.6 5 Nordeste 10 Este 0 -- -- 74
2021-02-28 13:00:00 6.4 4 Nordeste 11 Este 0 -- -- 82
2021-02-28 12:00:00 6.6 3 Este 12 Sudeste 0 -- -- 81
2021-02-28 11:00:00 5.6 6 Este 14 Este 0 -- -- 79
2021-02-28 10:00:00 5.7 5 Este 10 Este 0 -- -- 83
2021-02-28 09:00:00 5.8 0 Calma 6 Este 0 -- -- 86
2021-02-28 08:00:00 4.7 4 Sudeste 11 Este 0 -- -- 80
2021-02-28 07:00:00 4.6 4 Este 11 Sudeste 0 -- -- 92
2021-02-28 06:00:00 4.7 6 Este 13 Este 0 -- -- 91
2021-02-28 05:00:00 5.5 9 Sudeste 21 Sudeste 0 -- -- 78
2021-02-28 04:00:00 5.9 14 Sudeste 23 Sudeste 0 -- -- 78
2021-02-28 03:00:00 4.4 6 Este 25 Sudeste 0 -- -- 94
2021-02-28 02:00:00 4.9 9 Este 17 Este 0 -- -- 100
2021-02-28 01:00:00 3.5 5 Este 13 Sudeste 0 -- -- 100
2021-02-28 00:00:00 3.8 6 Este 15 Sudeste 0 -- -- 100
2021-02-27 23:00:00 4.1 7 Este 12 Este 0 -- -- 100
2021-02-27 22:00:00 4.6 5 Este 13 Este 0 -- -- 99
2021-02-27 21:00:00 5.6 6 Este 13 Este 0 -- -- 96
2021-02-27 20:00:00 6.5 5 Este 11 Este 0 -- -- 96
2021-02-27 19:00:00 8 5 Este 14 Nordeste 0 -- -- 93
2021-02-27 18:00:00 9.7 4 Nordeste 9 Este 0 -- -- 85
2021-02-27 17:00:00 10.9 4 Este 14 Nordeste 0 -- -- 79
2021-02-27 16:00:00 11.4 5 Este 13 Nordeste 0 -- -- 80
2021-02-27 15:00:00 11.4 4 Este 11 Este 0 -- -- 82
2021-02-27 14:00:00 10.4 5 Este 13 Este 0 -- -- 86
2021-02-27 13:00:00 8.9 5 Este 11 Este 0 -- -- 98
2021-02-27 12:00:00 6.9 5 Este 12 Este 0 -- -- 100
2021-02-27 11:00:00 5.1 6 Este 15 Este 0 -- -- 100
2021-02-27 10:00:00 4.1 6 Este 19 Este 0 -- -- 100
2021-02-27 09:00:00 3.6 6 Este 15 Este 0 -- -- 100
2021-02-27 08:00:00 3.6 6 Este 14 Sudeste 0 -- -- 100
2021-02-27 07:00:00 3.9 5 Este 12 Este 0 -- -- 100
2021-02-27 06:00:00 4.1 5 Este 12 Este 0 -- -- 100
2021-02-27 05:00:00 4.2 5 Este 13 Este 0 -- -- 100
2021-02-27 04:00:00 4.4 6 Este 13 Sudeste 0 -- -- 100
2021-02-27 03:00:00 4.5 5 Este 14 Este 0 -- -- 100
2021-02-27 02:00:00 4.8 6 Este 14 Este 0 -- -- 100
2021-02-27 01:00:00 5 6 Este 18 Este 0 -- -- 100
2021-02-27 00:00:00 5.1 7 Este 17 Este 0 -- -- 100
2021-02-26 23:00:00 5.3 6 Este 13 Este 0 -- -- 100
2021-02-26 22:00:00 5.6 6 Este 17 Este 0 -- -- 100
2021-02-26 21:00:00 5.8 5 Este 13 Sudeste 0 -- -- 100
2021-02-26 20:00:00 6.8 5 Este 13 Nordeste 0 -- -- 100
2021-02-26 19:00:00 7.9 4 Nordeste 9 Este 0 -- -- 99
2021-02-26 18:00:00 9.3 5 Nordeste 13 Norte 0 -- -- 97
2021-02-26 17:00:00 10.3 6 Norte 14 Norte 0 -- -- 92
2021-02-26 16:00:00 10.8 3 Nordeste 8 Norte 0 -- -- 84
2021-02-26 15:00:00 10.6 4 Este 9 Este 0 -- -- 88
2021-02-26 14:00:00 10 4 Este 9 Este 0 -- -- 96
2021-02-26 13:00:00 8.4 4 Este 13 Este 0 -- -- 100
2021-02-26 12:00:00 7 5 Este 17 Este 0 -- -- 100
2021-02-26 11:00:00 5.4 6 Este 23 Nordeste 0 -- -- 100
2021-02-26 10:00:00 4.7 7 Este 21 Nordeste 0 -- -- 100
2021-02-26 09:00:00 3.9 9 Este 22 Este 0 -- -- 100
2021-02-26 08:00:00 3.6 8 Este 23 Nordeste 0 -- -- 100
2021-02-26 07:00:00 3.6 8 Este 22 Nordeste 0 -- -- 100
2021-02-26 06:00:00 3.6 8 Este 25 Este 0 -- -- 100
2021-02-26 05:00:00 3.6 8 Este 24 Nordeste 0 -- -- 100
2021-02-26 04:00:00 3.5 9 Este 21 Nordeste 0 -- -- 100
2021-02-26 03:00:00 3.6 8 Este 20 Nordeste 0 -- -- 100
2021-02-26 02:00:00 3.8 9 Este 20 Este 0 -- -- 100
2021-02-26 01:00:00 4 8 Este 19 Este 0 -- -- 100
2021-02-26 00:00:00 4 8 Este 22 Este 0 -- -- 100
2021-02-25 23:00:00 3.9 8 Este 25 Este 0 -- -- 100
2021-02-25 22:00:00 4.1 8 Este 26 Este 0 -- -- 100
2021-02-25 21:00:00 4.1 9 Nordeste 26 Este 0 -- -- 100
2021-02-25 20:00:00 4.2 10 Nordeste 28 Este 0 -- -- 100
2021-02-25 19:00:00 4.2 9 Nordeste 22 Nordeste 0 -- -- 100
2021-02-25 18:00:00 4.1 9 Nordeste 26 Nordeste 0 -- -- 100
2021-02-25 17:00:00 4.3 8 Este 21 Este 0.2 -- -- 100
2021-02-25 16:00:00 4.4 8 Este 14 Nordeste 0 -- -- 100
2021-02-25 15:00:00 4.7 8 Este 24 Nordeste 0 -- -- 100
2021-02-25 14:00:00 4.5 8 Este 19 Nordeste 0 -- -- 100
2021-02-25 13:00:00 4.4 5 Este 15 Este 0.2 -- -- 100
2021-02-25 12:00:00 3.9 4 Noroeste 14 Oeste 1.2 -- -- 100
2021-02-25 11:00:00 3.4 5 Este 14 Sudeste 0.2 -- -- 100
2021-02-25 10:00:00 2.9 5 Este 13 Este 0 -- -- 100
2021-02-25 09:00:00 2.8 4 Este 15 Este 0.2 -- -- 100
2021-02-25 08:00:00 2.8 3 Este 6 Sudeste 0.6 -- -- 100
2021-02-25 07:00:00 2.7 2 Nordeste 12 Sudoeste 0.4 -- -- 100
2021-02-25 06:00:00 2.8 8 Oeste 21 Oeste 1.2 -- -- 100
2021-02-25 05:00:00 3 15 Oeste 30 Oeste 2 -- -- 100
2021-02-25 04:00:00 3.5 18 Oeste 30 Oeste 2.6 -- -- 100
2021-02-25 03:00:00 4.6 12 Oeste 20 Oeste 1.4 -- -- 99
2021-02-25 02:00:00 6.1 11 Sudoeste 24 Sudeste 0 -- -- 97
2021-02-25 01:00:00 8.4 10 Sur 22 Sudeste 0 -- -- 77
2021-02-25 00:00:00 8.5 9 Sur 21 Sur 0 -- -- 75
2021-02-24 23:00:00 8.4 7 Sur 26 Sur 0 -- -- 76
2021-02-24 22:00:00 8.4 12 Sur 28 Sur 0 -- -- 75
2021-02-24 21:00:00 8.6 10 Sur 24 Sur 0 -- -- 74
2021-02-24 20:00:00 8.9 12 Sur 31 Sudeste 0 -- -- 72
2021-02-24 19:00:00 9.4 14 Sur 30 Sur 0 -- -- 69
2021-02-24 18:00:00 10.1 6 Sur 29 Sudoeste 0 -- -- 66
2021-02-24 17:00:00 10.5 16 Sur 42 Sudeste 0 -- -- 63
2021-02-24 16:00:00 11.5 12 Sur 36 Sudeste 0 -- -- 60
2021-02-24 15:00:00 12.3 17 Sudeste 49 Sudeste 0 -- -- 56
2021-02-24 14:00:00 11.2 18 Sur 42 Sur 0 -- -- 57
2021-02-24 13:00:00 12 17 Sur 51 Sudeste 0 -- -- 53
2021-02-24 12:00:00 11.2 10 Sudeste 44 Sudeste 0 -- -- 57
2021-02-24 11:00:00 9.7 8 Este 26 Sur 0 -- -- 62
2021-02-24 10:00:00 7.8 9 Sudeste 19 Sudeste 0 -- -- 67
2021-02-24 09:00:00 7.1 6 Este 41 Sudoeste 0 -- -- 68
2021-02-24 08:00:00 6.5 17 Sur 32 Sur 0 -- -- 72
2021-02-24 07:00:00 6.6 20 Sudeste 41 Sudeste 0 -- -- 73
2021-02-24 06:00:00 6.3 13 Sudeste 30 Sur 0 -- -- 74
2021-02-24 05:00:00 6.4 10 Sudeste 28 Sudeste 0 -- -- 74
2021-02-24 04:00:00 6.6 12 Sudeste 31 Sudeste 0 -- -- 71
2021-02-24 03:00:00 6.9 12 Sudeste 36 Sur 0 -- -- 66
2021-02-24 02:00:00 6.9 12 Sudeste 34 Sudeste 0 -- -- 61
2021-02-24 01:00:00 6.8 14 Sudeste 32 Sudeste 0 -- -- 53
2021-02-24 00:00:00 6.8 13 Sudeste 28 Sudeste 0 -- -- 59
2021-02-23 23:00:00 7.4 10 Sudeste 26 Sudeste 0 -- -- 50
2021-02-23 22:00:00 8.1 13 Sur 23 Sur 0 -- -- 61
2021-02-23 21:00:00 9 12 Sudeste 28 Sudeste 0 -- -- 71
2021-02-23 20:00:00 9.4 10 Sudeste 27 Sur 0 -- -- 72
2021-02-23 19:00:00 9.8 12 Sudeste 29 Este 0 -- -- 72
2021-02-23 18:00:00 10.3 8 Sudeste 24 Este 0 -- -- 71
2021-02-23 17:00:00 10.8 6 Sudeste 22 Sur 0 -- -- 69
2021-02-23 16:00:00 10.8 5 Sudeste 24 Sudeste 0 -- -- 65
2021-02-23 15:00:00 10.5 8 Este 22 Sudeste 0 -- -- 63
2021-02-23 14:00:00 10.9 6 Este 26 Sudeste 0 -- -- 63
2021-02-23 13:00:00 10.4 11 Sudeste 27 Este 0 -- -- 63
2021-02-23 12:00:00 8.5 15 Sudeste 32 Sudeste 0 -- -- 64
2021-02-23 11:00:00 7.2 15 Sudeste 33 Sudeste 0 -- -- 65
2021-02-23 10:00:00 6.8 13 Sudeste 32 Sudeste 0 -- -- 67
2021-02-23 09:00:00 5.1 17 Sudeste 33 Sudeste 0 -- -- 66
2021-02-23 08:00:00 3.6 10 Sudeste 24 Sudeste 0 -- -- 69
2021-02-23 07:00:00 3.3 8 Este 20 Sudeste 0 -- -- 70
2021-02-23 06:00:00 3.5 8 Sudeste 23 Sudeste 0 -- -- 72
2021-02-23 05:00:00 3.4 14 Sudeste 24 Sudeste 0 -- -- 75
2021-02-23 04:00:00 3.8 5 Este 18 Sudeste 0 -- -- 75
2021-02-23 03:00:00 4.2 10 Sudeste 17 Sudeste 0 -- -- 73
2021-02-23 02:00:00 4.1 9 Sudeste 18 Sudeste 0 -- -- 74
2021-02-23 01:00:00 4.4 10 Sudeste 18 Sudeste 0 -- -- 72
2021-02-23 00:00:00 4.7 11 Sudeste 18 Sudeste 0 -- -- 72
2021-02-22 23:00:00 4.9 9 Sur 21 Sur 0 -- -- 71
2021-02-22 22:00:00 5 10 Sur 18 Sudeste 0 -- -- 68
2021-02-22 21:00:00 5.3 12 Sur 20 Sur 0 -- -- 62
2021-02-22 20:00:00 5.7 9 Sudoeste 20 Sur 0 -- -- 64
2021-02-22 19:00:00 5.9 9 Sudoeste 18 Oeste 0 -- -- 69
2021-02-22 18:00:00 6.6 10 Oeste 20 Oeste 0 -- -- 70
2021-02-22 17:00:00 7.6 8 Oeste 19 Sudoeste 0 -- -- 65
2021-02-22 16:00:00 7.6 9 Sur 19 Sudoeste 0 -- -- 52
2021-02-22 15:00:00 6.6 6 Oeste 15 Sudoeste 0 -- -- 80
2021-02-22 14:00:00 5.7 11 Oeste 20 Oeste 0 -- -- 88
2021-02-22 13:00:00 4.9 4 Oeste 14 Oeste 0 -- -- 82
2021-02-22 12:00:00 4.3 5 Sudeste 13 Sudeste 0 -- -- 89
2021-02-22 11:00:00 2.5 4 Sudeste 11 Sudeste 0.2 -- -- 100
2021-02-22 10:00:00 0.9 4 Sur 11 Sudeste 0 -- -- 100
2021-02-22 09:00:00 -0.2 4 Sudeste 10 Oeste 0 -- -- 100
2021-02-22 08:00:00 -0.5 5 Sudoeste 10 Sudoeste 0 -- -- 100
2021-02-22 07:00:00 -0.2 4 Sudoeste 9 Sudoeste 0 -- -- 100
2021-02-22 06:00:00 0.6 3 Sudoeste 11 Sudoeste 0 -- -- 100
2021-02-22 05:00:00 0.6 3 Sudoeste 10 Sudoeste 0 -- -- 100
2021-02-22 04:00:00 0.5 3 Oeste 13 Oeste 0 -- -- 100
2021-02-22 03:00:00 0.8 5 Oeste 15 Oeste 0 -- -- 100
2021-02-22 02:00:00 1 9 Oeste 21 Oeste 0 -- -- 100
2021-02-22 01:00:00 1 8 Oeste 18 Oeste 0 -- -- 100
2021-02-22 00:00:00 0.9 9 Oeste 16 Noroeste 0 -- -- 100
2021-02-21 23:00:00 0.9 9 Oeste 19 Oeste 0.2 -- -- 100
2021-02-21 22:00:00 1 12 Oeste 21 Noroeste 0.2 -- -- 100
2021-02-21 21:00:00 1 12 Oeste 26 Oeste 0.8 -- -- 100
2021-02-21 20:00:00 1.7 6 Noroeste 21 Noroeste 1.2 -- -- 100
2021-02-21 19:00:00 1.2 13 Oeste 24 Oeste 0.6 -- -- 100
2021-02-21 18:00:00 2 3 Sudoeste 11 Oeste 0.4 -- -- 100
2021-02-21 17:00:00 2.4 2 Oeste 9 Oeste 1 -- -- 100
2021-02-21 16:00:00 2.1 3 Norte 9 Noroeste 2 -- -- 100
2021-02-21 15:00:00 1.6 0 Calma 12 Oeste 2.4 -- -- 100
2021-02-21 14:00:00 0.8 3 Nordeste 11 Nordeste 2 -- -- 100
2021-02-21 13:00:00 0.2 4 Este 16 Norte 0.8 -- -- 100
2021-02-21 12:00:00 -0.1 4 Noroeste 13 Noroeste 0.2 -- -- 100
2021-02-21 11:00:00 -1.1 9 Oeste 24 Oeste 0 -- -- 100
2021-02-21 10:00:00 -0.8 16 Oeste 25 Oeste 0 -- -- 100
2021-02-21 09:00:00 -0.2 17 Oeste 26 Oeste 0.2 -- -- 100
2021-02-21 08:00:00 1.9 15 Sudoeste 23 Oeste 2.2 -- -- 99
2021-02-21 07:00:00 3.7 6 Sur 22 Sudeste 0.8 -- -- 97
2021-02-21 06:00:00 3.8 9 Sudeste 37 Sudeste 0.6 -- -- 96
2021-02-21 05:00:00 4.1 6 Sur 19 Sudeste 0.2 -- -- 93
2021-02-21 04:00:00 4.1 9 Sudeste 27 Sudeste 0 -- -- 94
2021-02-21 03:00:00 4.2 10 Sudeste 28 Sur 0.2 -- -- 96
2021-02-21 02:00:00 4.2 5 Sudeste 19 Este 0.4 -- -- 98
2021-02-21 01:00:00 4.3 9 Este 23 Este 1.6 -- -- 100
2021-02-21 00:00:00 4.6 6 Sur 31 Sudeste 0.8 -- -- 98
2021-02-20 23:00:00 5.1 10 Sur 30 Sudeste 0.8 -- -- 98
2021-02-20 22:00:00 5.1 4 Sudoeste 18 Sur 1.2 -- -- 98
2021-02-20 21:00:00 4.9 9 Sur 23 Sur 0.8 -- -- 98
2021-02-20 20:00:00 5 17 Sur 40 Sur 0.6 -- -- 98
2021-02-20 19:00:00 5.1 11 Sur 37 Sudoeste 0.8 -- -- 100
2021-02-20 18:00:00 5.4 19 Sudoeste 38 Sur 2.6 -- -- 98
2021-02-20 17:00:00 6.5 11 Sudoeste 33 Sur 1.6 -- -- 97
2021-02-20 16:00:00 7.2 14 Sur 34 Sur 0.4 -- -- 93
2021-02-20 15:00:00 7.8 12 Sur 40 Sur 0.2 -- -- 91
2021-02-20 14:00:00 8.3 15 Sur 55 Sur 0 -- -- 86
2021-02-20 13:00:00 7.5 22 Sur 53 Sur 0.6 -- -- 91
2021-02-20 12:00:00 6.7 27 Sur 57 Sur 1 -- -- 93
2021-02-20 11:00:00 7.2 24 Sur 65 Sur 0.4 -- -- 90
2021-02-20 10:00:00 8.5 23 Sur 61 Sur 0 -- -- 79
2021-02-20 09:00:00 8.3 19 Sudeste 49 Sur 0 -- -- 77
2021-02-20 08:00:00 8.1 20 Sudeste 54 Sudeste 0 -- -- 76
2021-02-20 07:00:00 7.9 16 Sudeste 57 Este 0 -- -- 79
2021-02-20 06:00:00 8 11 Sudeste 42 Este 0 -- -- 80
2021-02-20 05:00:00 8.1 14 Sudeste 54 Sur 0 -- -- 78
2021-02-20 04:00:00 8.1 15 Sudeste 47 Sudeste 0 -- -- 77
2021-02-20 03:00:00 8.1 26 Sur 57 Sur 0 -- -- 76
2021-02-20 02:00:00 8.2 21 Sur 49 Sur 0 -- -- 76
2021-02-20 01:00:00 8 18 Sur 50 Sur 0 -- -- 77
2021-02-20 00:00:00 8.1 24 Sur 51 Sudeste 0 -- -- 79
2021-02-19 23:00:00 8.4 21 Sur 48 Sur 0 -- -- 80
2021-02-19 22:00:00 8.1 17 Sudeste 48 Sudeste 0 -- -- 81
2021-02-19 21:00:00 8.3 17 Sur 50 Sudeste 0 -- -- 79
2021-02-19 20:00:00 8.2 14 Sudeste 34 Sudoeste 0 -- -- 81
2021-02-19 19:00:00 8.3 16 Sur 58 Sur 0 -- -- 81
2021-02-19 18:00:00 8.7 20 Sur 69 Sur 0 -- -- 80
2021-02-19 17:00:00 9 16 Sur 54 Sur 0 -- -- 76
2021-02-19 16:00:00 9.7 14 Sur 44 Sur 0 -- -- 75
2021-02-19 15:00:00 8.6 15 Sur 40 Sudoeste 0 -- -- 82
2021-02-19 14:00:00 8.4 21 Sur 47 Sur 0 -- -- 81
2021-02-19 13:00:00 8.7 19 Sur 46 Sur 0 -- -- 76
2021-02-19 12:00:00 8.4 16 Sur 41 Sur 0 -- -- 77
2021-02-19 11:00:00 8 15 Sur 43 Sur 0 -- -- 78
2021-02-19 10:00:00 7.5 20 Sur 54 Sudeste 0 -- -- 83
2021-02-19 09:00:00 6.9 19 Sur 40 Sur 0 -- -- 84
2021-02-19 08:00:00 6.6 14 Sur 36 Sur 0 -- -- 82
2021-02-19 07:00:00 6.5 18 Sur 46 Sur 0 -- -- 82
2021-02-19 06:00:00 6 12 Sur 36 Sur 0 -- -- 84
2021-02-19 05:00:00 5.7 16 Sur 39 Sudoeste 0 -- -- 83
2021-02-19 04:00:00 5.7 10 Sur 33 Sudoeste 0 -- -- 86
2021-02-19 03:00:00 5.6 18 Sur 45 Sur 0 -- -- 84
2021-02-19 02:00:00 5 18 Sur 42 Sur 0 -- -- 85
2021-02-19 01:00:00 4.8 12 Sur 50 Sudoeste 0 -- -- 83
2021-02-19 00:00:00 4.4 17 Sur 46 Sur 0 -- -- 86
2021-02-18 23:00:00 4.3 14 Sur 35 Sur 0 -- -- 89
2021-02-18 22:00:00 4.5 10 Sur 33 Sudoeste 0 -- -- 94
2021-02-18 21:00:00 4.2 13 Sur 32 Sudoeste 0 -- -- 93
2021-02-18 20:00:00 4.5 8 Sudoeste 23 Sudoeste 0 -- -- 96
2021-02-18 19:00:00 4.5 8 Sur 30 Oeste 0 -- -- 92
2021-02-18 18:00:00 5.5 13 Sudoeste 30 Sudoeste 0 -- -- 90
2021-02-18 17:00:00 5.4 9 Sudoeste 34 Sudoeste 0 -- -- 91
2021-02-18 16:00:00 5.6 13 Sudoeste 35 Sudoeste 0 -- -- 91
2021-02-18 15:00:00 5.3 14 Sudoeste 32 Sudoeste 0.2 -- -- 100
2021-02-18 14:00:00 4.2 11 Sudoeste 31 Sudoeste 0.4 -- -- 100
2021-02-18 13:00:00 3.7 8 Sudoeste 27 Sudoeste 1.2 -- -- 100
2021-02-18 12:00:00 3.5 6 Sudoeste 31 Oeste 2.4 -- -- 100
2021-02-18 11:00:00 3.5 9 Sudoeste 33 Sudoeste 2.8 -- -- 100
2021-02-18 10:00:00 3.5 12 Sudoeste 33 Sur 4 -- -- 100
2021-02-18 09:00:00 4.2 12 Sudoeste 42 Sur 1.2 -- -- 100
2021-02-18 08:00:00 4.2 13 Sur 56 Sudoeste 4.8 -- -- 100
2021-02-18 07:00:00 4.4 17 Sudoeste 46 Oeste 7 -- -- 99
2021-02-18 06:00:00 5.7 13 Sudoeste 54 Sur 3.2 -- -- 100
2021-02-18 05:00:00 5.8 15 Sur 68 Sudoeste 8 -- -- 100
2021-02-18 04:00:00 6.3 17 Sur 56 Oeste 4.4 -- -- 100
2021-02-18 03:00:00 6.7 17 Sudoeste 51 Sudoeste 3.6 -- -- 100
2021-02-18 02:00:00 6.2 14 Sudoeste 50 Sur 2 -- -- 99
2021-02-18 01:00:00 6.8 20 Sur 45 Sudoeste 4.2 -- -- 99
2021-02-18 00:00:00 6.7 24 Sur 55 Sur 0.2 -- -- 98
2021-02-17 23:00:00 6.1 25 Sur 59 Sudoeste 1.4 -- -- 96
2021-02-17 22:00:00 7 16 Sur 55 Sur 1.8 -- -- 99
2021-02-17 21:00:00 6.9 21 Sur 54 Sudoeste 1.4 -- -- 94
2021-02-17 20:00:00 6.8 15 Sudoeste 45 Sudoeste 3.8 -- -- 99
2021-02-17 19:00:00 7.4 16 Sur 39 Sudoeste 0.4 -- -- 94
2021-02-17 18:00:00 8.3 18 Sur 36 Sur 0 -- -- 87
2021-02-17 17:00:00 8.4 11 Sur 26 Sur 0 -- -- 86
2021-02-17 16:00:00 8 10 Sur 36 Sudoeste 0 -- -- 88
2021-02-17 15:00:00 9.3 15 Sur 54 Sur 0 -- -- 73
2021-02-17 14:00:00 8.9 16 Sur 46 Sur 0 -- -- 72
2021-02-17 13:00:00 8.1 15 Sur 43 Sudoeste 0 -- -- 73
2021-02-17 12:00:00 7.2 19 Sur 42 Sur 0 -- -- 80
2021-02-17 11:00:00 6.5 10 Sur 28 Sudoeste 0 -- -- 88
2021-02-17 10:00:00 5.6 10 Sur 33 Sur 0 -- -- 84
2021-02-17 09:00:00 4.5 16 Sur 31 Sur 0 -- -- 86
2021-02-17 08:00:00 4.4 15 Sur 31 Sudoeste 0 -- -- 84
2021-02-17 07:00:00 4.1 13 Sur 32 Sur 0 -- -- 83
2021-02-17 06:00:00 4.1 15 Sur 32 Sur 0 -- -- 81
2021-02-17 05:00:00 4.1 15 Sur 34 Sur 0 -- -- 78
2021-02-17 04:00:00 3.8 17 Sur 33 Sur 0 -- -- 82
2021-02-17 03:00:00 3.7 15 Sur 28 Sur 0 -- -- 85
2021-02-17 02:00:00 3.6 13 Sur 29 Sur 0 -- -- 93
2021-02-17 01:00:00 3.6 13 Sur 31 Sur 0 -- -- 94
2021-02-17 00:00:00 3.7 11 Sur 24 Sur 0 -- -- 95
2021-02-16 23:00:00 4.1 12 Sur 27 Sudoeste 0 -- -- 97
2021-02-16 22:00:00 4.3 9 Sudoeste 25 Sudoeste 0 -- -- 92
2021-02-16 21:00:00 4.8 8 Sudoeste 26 Sudoeste 0 -- -- 87
2021-02-16 20:00:00 5.1 8 Sudoeste 27 Sudoeste 0 -- -- 82
2021-02-16 19:00:00 5.9 11 Sudoeste 30 Sudoeste 0 -- -- 73
2021-02-16 18:00:00 7.6 10 Sudoeste 30 Sudoeste 0 -- -- 76
2021-02-16 17:00:00 8.3 9 Sudoeste 31 Sudoeste 0 -- -- 78
2021-02-16 16:00:00 7.7 11 Sudoeste 29 Sur 0 -- -- 76
2021-02-16 15:00:00 7.4 13 Sudoeste 30 Sur 0 -- -- 84
2021-02-16 14:00:00 5.9 8 Sur 27 Sur 0 -- -- 100
2021-02-16 13:00:00 5.5 9 Sur 31 Oeste 0.2 -- -- 100
2021-02-16 12:00:00 5.1 12 Sur 33 Sudoeste 2.2 -- -- 100
2021-02-16 11:00:00 5 8 Sur 38 Oeste 3.4 -- -- 100
2021-02-16 10:00:00 5 15 Oeste 46 Sudoeste 5.8 -- -- 99
2021-02-16 09:00:00 6.6 17 Sudoeste 53 Sur 0.6 -- -- 91
2021-02-16 08:00:00 7.4 24 Sur 53 Sur 0 -- -- 74
2021-02-16 07:00:00 7.1 21 Sur 53 Sur 0 -- -- 76
2021-02-16 06:00:00 7.5 17 Sur 53 Sur 0 -- -- 76
2021-02-16 05:00:00 8 18 Sur 49 Sur 0 -- -- 74
2021-02-16 04:00:00 8.3 16 Sur 46 Sudeste 0 -- -- 74
2021-02-16 03:00:00 8.6 18 Sur 51 Sudoeste 0 -- -- 70
2021-02-16 02:00:00 8.9 19 Sur 46 Sur 0 -- -- 66
2021-02-16 01:00:00 9.4 18 Sur 51 Sudoeste 0 -- -- 63
2021-02-16 00:00:00 9.9 19 Sur 52 Sur 0 -- -- 58
2021-02-15 23:00:00 10.2 15 Sur 39 Sur 0 -- -- 54
2021-02-15 22:00:00 9.8 10 Sur 32 Sudeste 0 -- -- 59
2021-02-15 21:00:00 10.4 15 Sur 34 Sur 0 -- -- 58
2021-02-15 20:00:00 10.8 14 Sur 38 Sur 0 -- -- 59
2021-02-15 19:00:00 11.4 9 Sur 32 Sur 0 -- -- 55
2021-02-15 18:00:00 12.6 12 Sur 46 Sur 0 -- -- 53
2021-02-15 17:00:00 13.5 17 Sur 40 Sur 0 -- -- 46
2021-02-15 16:00:00 13.6 9 Sudeste 35 Sudeste 0 -- -- 49
2021-02-15 15:00:00 13.3 6 Sudeste 26 Sudeste 0 -- -- 58
2021-02-15 14:00:00 14 6 Este 31 Sudeste 0 -- -- 56
2021-02-15 13:00:00 13.3 9 Este 29 Este 0 -- -- 53
2021-02-15 12:00:00 12.4 6 Este 23 Sudeste 0 -- -- 54
2021-02-15 11:00:00 11.1 7 Este 23 Sur 0 -- -- 52
2021-02-15 10:00:00 9.5 13 Sur 30 Sur 0 -- -- 49
2021-02-15 09:00:00 8.7 17 Sur 31 Sur 0 -- -- 46
2021-02-15 08:00:00 9 12 Sur 33 Sudeste 0 -- -- 38
2021-02-15 07:00:00 9.3 19 Sur 36 Sur 0 -- -- 35
2021-02-15 06:00:00 9.5 23 Sur 41 Sur 0 -- -- 35
2021-02-15 05:00:00 9.4 15 Sur 42 Sur 0 -- -- 35
2021-02-15 04:00:00 9.9 21 Sur 48 Sur 0 -- -- 35
2021-02-15 03:00:00 9.8 22 Sur 45 Sudoeste 0 -- -- 36
2021-02-15 02:00:00 9.7 20 Sur 41 Sur 0 -- -- 41
2021-02-15 01:00:00 9.8 18 Sur 45 Sur 0 -- -- 48
2021-02-15 00:00:00 9.8 18 Sur 43 Sur 0 -- -- 53
2021-02-14 23:00:00 10.1 20 Sur 40 Sur 0 -- -- 57
2021-02-14 22:00:00 10.2 16 Sur 47 Sur 0 -- -- 59
2021-02-14 21:00:00 10.4 20 Sur 45 Sur 0 -- -- 55
2021-02-14 20:00:00 10.2 18 Sur 36 Sudeste 0 -- -- 59
2021-02-14 19:00:00 10.8 15 Sur 33 Sur 0 -- -- 57
2021-02-14 18:00:00 12.3 11 Sur 39 Sudoeste 0 -- -- 54
2021-02-14 17:00:00 12.1 14 Sur 31 Sur 0.2 -- -- 56
2021-02-14 16:00:00 12.7 11 Sur 31 Sur 0 -- -- 55
2021-02-14 15:00:00 12.3 12 Sur 32 Sur 0 -- -- 54
2021-02-14 14:00:00 12.5 9 Sur 31 Sur 0 -- -- 52
2021-02-14 13:00:00 12.2 9 Sur 35 Sur 0 -- -- 54
2021-02-14 12:00:00 11.5 17 Sur 44 Sudoeste 0 -- -- 64
2021-02-14 11:00:00 10.6 14 Sur 29 Sur 0 -- -- 73
2021-02-14 10:00:00 9.1 11 Sur 24 Sudoeste 0 -- -- 76
2021-02-14 09:00:00 7.4 8 Sudeste 25 Sudeste 0 -- -- 85
2021-02-14 08:00:00 7.5 14 Sur 28 Sudeste 0 -- -- 82
2021-02-14 07:00:00 6.9 15 Sudeste 30 Sur 0 -- -- 88
2021-02-14 06:00:00 6.7 9 Sudeste 21 Sur 0 -- -- 92
2021-02-14 05:00:00 7.1 12 Sur 20 Sur 0 -- -- 91
2021-02-14 04:00:00 6.8 9 Sudeste 20 Sudeste 0 -- -- 92
2021-02-14 03:00:00 6.9 12 Sudeste 22 Sur 0 -- -- 92
2021-02-14 02:00:00 7.3 9 Sur 19 Sur 0 -- -- 92
2021-02-14 01:00:00 7.4 8 Sur 26 Sur 0 -- -- 92
2021-02-14 00:00:00 7.5 7 Sur 25 Sur 0 -- -- 93
2021-02-13 23:00:00 7.9 15 Sur 28 Sur 0 -- -- 91
2021-02-13 22:00:00 8.2 11 Sur 26 Sur 0 -- -- 91
2021-02-13 21:00:00 7.5 5 Sudoeste 14 Sudoeste 0 -- -- 97
2021-02-13 20:00:00 7.7 9 Sudeste 26 Sur 0 -- -- 97
2021-02-13 19:00:00 8.1 14 Sur 27 Sur 0 -- -- 97
2021-02-13 18:00:00 8.3 5 Sur 19 Sudoeste 0 -- -- 97
2021-02-13 17:00:00 8.4 9 Sur 25 Oeste 0 -- -- 97
2021-02-13 16:00:00 8.8 8 Sur 22 Sudoeste 0 -- -- 95
2021-02-13 15:00:00 8.1 9 Sudoeste 27 Sur 0 -- -- 97
2021-02-13 14:00:00 8.7 12 Sudoeste 26 Sur 0 -- -- 95
2021-02-13 13:00:00 8.4 9 Sur 35 Sudoeste 0 -- -- 97
2021-02-13 08:00:00 -- -- -- -- -- -- -- -- --
2021-02-13 07:00:00 4.1 7 Sur 26 Sudoeste 0 -- -- 89
2021-02-13 06:00:00 4.3 8 Sudoeste 26 Oeste 0 -- -- 81
2021-02-13 05:00:00 4.1 12 Sudoeste 24 Sudoeste 0 -- -- 86
2021-02-13 04:00:00 3.6 13 Sudoeste 24 Oeste 0 -- -- 98
2021-02-13 03:00:00 4.3 10 Sudoeste 23 Sudoeste 0 -- -- 87
2021-02-13 02:00:00 4.4 9 Sudoeste 24 Sur 0 -- -- 81
2021-02-13 01:00:00 4.4 6 Sur 24 Sur 0 -- -- 93
2021-02-13 00:00:00 4.4 9 Sur 22 Sudoeste 0 -- -- 98
2021-02-12 23:00:00 4.8 8 Sudoeste 22 Sur 0 -- -- 98
2021-02-12 22:00:00 4.9 12 Sudoeste 24 Sudoeste 0 -- -- 94
2021-02-12 21:00:00 4.7 6 Sudoeste 21 Sudoeste 0 -- -- 90
2021-02-12 20:00:00 5.2 6 Sudoeste 17 Sudoeste 0 -- -- 93
2021-02-12 19:00:00 5.8 6 Sur 21 Sudoeste 0 -- -- 92
2021-02-12 18:00:00 7.4 6 Sudoeste 20 Sudoeste 0 -- -- 91
2021-02-12 17:00:00 7.7 6 Sur 18 Sur 0 -- -- 94
2021-02-12 16:00:00 6.9 6 Sudoeste 21 Oeste 0 -- -- 100
2021-02-12 15:00:00 6.6 7 Sudoeste 18 Sudoeste 0 -- -- 100
2021-02-12 14:00:00 5.9 8 Oeste 24 Sudoeste 0 -- -- 100
2021-02-12 13:00:00 5.3 11 Oeste 25 Oeste 0 -- -- 100
2021-02-12 12:00:00 5 8 Sudoeste 30 Oeste 0 -- -- 100
2021-02-12 11:00:00 4.8 13 Oeste 36 Sudoeste 0 -- -- 100
2021-02-12 10:00:00 4.9 14 Oeste 36 Oeste 0.2 -- -- 100
2021-02-12 09:00:00 4.8 15 Oeste 35 Oeste 0.4 -- -- 100
2021-02-12 08:00:00 4.8 12 Oeste 37 Oeste 1.2 -- -- 100
2021-02-12 07:00:00 4.7 8 Sudoeste 37 Sudoeste 1.2 -- -- 100
2021-02-12 06:00:00 4.9 9 Sur 32 Sur 0.2 -- -- 100
2021-02-12 05:00:00 5.4 13 Sur 35 Sudoeste 1.6 -- -- 100
2021-02-12 04:00:00 6.2 10 Sudoeste 42 Oeste 1.4 -- -- 100
2021-02-12 03:00:00 6.6 10 Sur 33 Sur 0.4 -- -- 100
2021-02-12 02:00:00 6.8 8 Oeste 33 Sudoeste 0.2 -- -- 100
2021-02-12 01:00:00 6.5 9 Sur 21 Sudoeste 1 -- -- 100
2021-02-12 00:00:00 6.4 9 Sudoeste 29 Sudoeste 3 -- -- 100
2021-02-11 23:00:00 7.2 12 Sudoeste 35 Sudoeste 2.4 -- -- 100
2021-02-11 22:00:00 7.4 3 Sudeste 27 Sudoeste 1.4 -- -- 100
2021-02-11 21:00:00 7.5 7 Sudoeste 27 Sur 7.4 -- -- 100
2021-02-11 20:00:00 8.7 10 Sudoeste 36 Sudoeste 0 -- -- 100
2021-02-11 19:00:00 8.9 13 Sur 30 Sur 1 -- -- 100
2021-02-11 18:00:00 9.3 9 Sur 29 Sur 0.6 -- -- 97
2021-02-11 17:00:00 9.7 13 Sur 33 Sudoeste 0 -- -- 93
2021-02-11 16:00:00 9.6 14 Sur 34 Sur 0 -- -- 95
2021-02-11 15:00:00 9.7 14 Sur 36 Sudoeste 0 -- -- 94
2021-02-11 14:00:00 9.8 14 Sur 37 Sudoeste 0 -- -- 91
2021-02-11 13:00:00 9.9 13 Sur 42 Sur 0 -- -- 88
2021-02-11 12:00:00 9.1 16 Sur 40 Sudoeste 0 -- -- 92
2021-02-11 11:00:00 8.5 18 Sur 40 Sur 0 -- -- 96
2021-02-11 10:00:00 8 15 Sur 38 Sur 0 -- -- 99
2021-02-11 09:00:00 7.8 14 Sur 47 Sur 0 -- -- 100
2021-02-11 08:00:00 7.7 14 Sur 41 Sudoeste 0.2 -- -- 100
2021-02-11 07:00:00 7.8 13 Sur 36 Sur 0 -- -- 100
2021-02-11 06:00:00 8 11 Sur 39 Sudoeste 0 -- -- 100
2021-02-11 05:00:00 7.8 12 Sur 42 Sudoeste 0 -- -- 100
2021-02-11 04:00:00 7.6 13 Sur 46 Sudoeste 0 -- -- 100
2021-02-11 03:00:00 7.7 16 Sur 45 Sudoeste 0.2 -- -- 100
2021-02-11 02:00:00 7.4 14 Sur 46 Sur 0.6 -- -- 100
2021-02-11 01:00:00 6.8 12 Sur 42 Sur 0 -- -- 100
2021-02-11 00:00:00 5.8 15 Sur 49 Sur 0.6 -- -- 100
2021-02-10 23:00:00 4.1 6 Sudeste 21 Sur 0.4 -- -- 100
2021-02-10 22:00:00 4.7 11 Sur 23 Sur 0 -- -- 84
2021-02-10 21:00:00 5.3 9 Sudoeste 28 Sur 0 -- -- 78
2021-02-10 20:00:00 5.3 14 Sur 31 Sudoeste 0 -- -- 72
2021-02-10 19:00:00 5.1 8 Sur 21 Sur 0 -- -- 75
2021-02-10 18:00:00 5.3 9 Sur 21 Sudoeste 0 -- -- 64
2021-02-10 17:00:00 6.8 7 Sudoeste 18 Oeste 0 -- -- 76
2021-02-10 16:00:00 6.1 8 Sudoeste 23 Oeste 0 -- -- 80
2021-02-10 15:00:00 5.5 8 Sudoeste 21 Oeste 0 -- -- 86
2021-02-10 14:00:00 3.9 6 Sudoeste 21 Sudoeste 0 -- -- 100
2021-02-10 13:00:00 2.9 7 Sudeste 19 Sudoeste 0 -- -- 100
2021-02-10 12:00:00 2.8 6 Sudeste 19 Oeste 0 -- -- 100
2021-02-10 11:00:00 1.8 7 Sudeste 28 Oeste 0 -- -- 100
2021-02-10 10:00:00 1.3 6 Sudeste 32 Sudoeste 0 -- -- 100
2021-02-10 09:00:00 0.9 10 Sudoeste 27 Sudoeste 0 -- -- 100
2021-02-10 08:00:00 0.7 9 Sur 29 Sudoeste 0 -- -- 100
2021-02-10 07:00:00 0.7 8 Sudoeste 31 Sudoeste 0.2 -- -- 100
2021-02-10 06:00:00 0.8 8 Sudoeste 32 Oeste 0.2 -- -- 100
2021-02-10 05:00:00 0.9 10 Oeste 37 Sudoeste 0.4 -- -- 100
2021-02-10 04:00:00 1 12 Oeste 30 Sudoeste 0 -- -- 100
2021-02-10 03:00:00 0.9 10 Sudoeste 38 Oeste 0.6 -- -- 100
2021-02-10 02:00:00 1.4 8 Sudoeste 35 Sudoeste 0.4 -- -- 100
2021-02-10 01:00:00 1.3 13 Sudoeste 37 Sudoeste 1.4 -- -- 100
2021-02-10 00:00:00 1 14 Sur 39 Sudoeste 2.4 -- -- 100
2021-02-09 23:00:00 1.6 14 Sur 36 Sudoeste 1.6 -- -- 100
2021-02-09 22:00:00 1.5 12 Sur 35 Sudoeste 1 -- -- 100
2021-02-09 21:00:00 1.5 13 Sudoeste 44 Sudoeste 1.8 -- -- 100
2021-02-09 20:00:00 1.1 13 Sudoeste 39 Sudoeste 0.2 -- -- 100
2021-02-09 19:00:00 0.3 8 Sur 22 Sudoeste 0 -- -- 100
2021-02-09 18:00:00 0 5 Sur 40 Sudoeste 0.2 -- -- 100
2021-02-09 17:00:00 2.1 14 Sudoeste 40 Sur 1 -- -- 97
2021-02-09 16:00:00 1.7 10 Sudoeste 42 Sudoeste 1.2 -- -- 99
2021-02-09 15:00:00 2.4 9 Sur 37 Sudoeste 0.6 -- -- 99
2021-02-09 14:00:00 2.9 12 Sur 37 Oeste 0 -- -- 100
2021-02-09 13:00:00 2.1 14 Sudoeste 44 Oeste 0 -- -- 100
2021-02-09 12:00:00 2.1 15 Sudoeste 47 Sudoeste 0 -- -- 100
2021-02-09 11:00:00 1.6 17 Sudoeste 40 Sudoeste 0.2 -- -- 100
2021-02-09 10:00:00 1.5 16 Sudoeste 47 Sudoeste 0.8 -- -- 100
2021-02-09 09:00:00 1.6 19 Sudoeste 62 Oeste 4.4 -- -- 100
2021-02-09 08:00:00 3.6 19 Sudoeste 53 Sur 2.4 -- -- 100
2021-02-09 07:00:00 4.2 16 Sur 53 Sudoeste 2.8 -- -- 100
2021-02-09 06:00:00 3.8 27 Sur 55 Sudoeste 1 -- -- 100
2021-02-09 05:00:00 3.9 23 Sur 58 Sur 0.2 -- -- 100
2021-02-09 04:00:00 3.6 23 Sur 51 Sur 0.2 -- -- 100
2021-02-09 03:00:00 3.3 25 Sur 58 Sudoeste 0 -- -- 100
2021-02-09 02:00:00 2.9 21 Sur 42 Sur 0.2 -- -- 100
2021-02-09 01:00:00 2.6 15 Sur 34 Sur 0.8 -- -- 100
2021-02-09 00:00:00 2.7 14 Sur 42 Sur 0 -- -- 100
2021-02-08 23:00:00 2.8 13 Sudoeste 48 Oeste 0.4 -- -- 100
2021-02-08 22:00:00 3 13 Sur 51 Sudoeste 0.2 -- -- 100
2021-02-08 21:00:00 3.5 12 Sur 39 Sudoeste 0.2 -- -- 100
2021-02-08 20:00:00 3.8 11 Sur 31 Sur 0.4 -- -- 100
2021-02-08 19:00:00 3.9 9 Sur 31 Sur 0.8 -- -- 100
2021-02-08 18:00:00 3.8 10 Sudoeste 31 Oeste 0.4 -- -- 100
2021-02-08 17:00:00 4.1 7 Sudoeste 35 Oeste 0 -- -- 100
2021-02-08 16:00:00 3.9 13 Oeste 38 Sudoeste 0.2 -- -- 100
2021-02-08 15:00:00 3.4 10 Sudoeste 31 Sudoeste 0.6 -- -- 100
2021-02-08 14:00:00 3 10 Sur 26 Oeste 1 -- -- 100
2021-02-08 13:00:00 2.6 11 Sudoeste 33 Oeste 0.2 -- -- 100
2021-02-08 12:00:00 1.6 11 Sur 36 Sudoeste 2.6 -- -- 100
2021-02-08 11:00:00 2.6 9 Sudoeste 30 Sudoeste 0 -- -- 100
2021-02-08 10:00:00 2.3 9 Sudoeste 33 Oeste 0.2 -- -- 100
2021-02-08 09:00:00 1.8 11 Sudoeste 33 Sudoeste 1 -- -- 100
2021-02-08 08:00:00 2 9 Sudoeste 33 Sudoeste 0.8 -- -- 100
2021-02-08 07:00:00 2.1 8 Sudoeste 31 Sudoeste 0.6 -- -- 100
2021-02-08 06:00:00 2.4 10 Sur 36 Oeste 0.4 -- -- 100
2021-02-08 05:00:00 2.5 13 Sur 36 Sudoeste 1.8 -- -- 100
2021-02-08 04:00:00 2.8 9 Sudoeste 40 Sudoeste 0 -- -- 100
2021-02-08 03:00:00 3 11 Sur 31 Sur 1.2 -- -- 100
2021-02-08 02:00:00 3.3 8 Sudoeste 27 Oeste 1.2 -- -- 100
2021-02-08 01:00:00 3.7 10 Sur 39 Oeste 2.8 -- -- 100
2021-02-08 00:00:00 4.3 13 Sur 42 Sur 0.6 -- -- 100
2021-02-07 23:00:00 4.3 19 Sur 44 Sur 1.6 -- -- 100
2021-02-07 22:00:00 4.8 16 Sur 45 Sudoeste 1 -- -- 100
2021-02-07 21:00:00 4.6 17 Sur 43 Sur 0 -- -- 100
2021-02-07 20:00:00 4.4 19 Sur 57 Sudoeste 0 -- -- 100
2021-02-07 19:00:00 4.5 18 Sur 50 Sur 0.2 -- -- 100
2021-02-07 18:00:00 4.1 14 Sur 43 Sudoeste 0 -- -- 100
2021-02-07 17:00:00 3.4 12 Sudoeste 43 Sudoeste 0 -- -- 100
2021-02-07 16:00:00 2.3 12 Sur 45 Sur 0.2 -- -- 100
2021-02-07 15:00:00 1.7 12 Sur 28 Sudoeste 0.6 -- -- 100
2021-02-07 14:00:00 1.3 10 Sudoeste 33 Sur 1.2 -- -- 100
2021-02-07 13:00:00 0.5 10 Sudoeste 27 Sur 0.8 -- -- 100
2021-02-07 12:00:00 0.2 7 Sudoeste 24 Sudoeste 0.8 -- -- 100
2021-02-07 11:00:00 -0.4 6 Sudoeste 15 Sudeste 0.2 -- -- 100
2021-02-07 10:00:00 -0.9 5 Sur 14 Sur 0 -- -- 100
2021-02-07 09:00:00 -1.2 5 Sudoeste 11 Oeste 0 -- -- 100
2021-02-07 08:00:00 -1.4 5 Sudoeste 15 Oeste 0 -- -- 100
2021-02-07 07:00:00 -1.5 8 Oeste 12 Sudoeste 0 -- -- 100
2021-02-07 06:00:00 -1.7 7 Sudoeste 10 Sudoeste 0 -- -- 100
2021-02-07 05:00:00 -1.9 8 Oeste 9 Oeste 0 -- -- 100
2021-02-07 04:00:00 -1.8 0 Calma 5 Oeste 0 -- -- 100
2021-02-07 03:00:00 -1.4 0 Calma 6 Oeste 0 -- -- 100
2021-02-07 02:00:00 -1.1 4 Nordeste 10 Nordeste 0 -- -- 100
2021-02-07 01:00:00 -0.9 4 Nordeste 8 Nordeste 0 -- -- 100
2021-02-07 00:00:00 -0.7 3 Nordeste 13 Nordeste 0 -- -- 100
2021-02-06 23:00:00 -0.7 5 Nordeste 14 Este 0 -- -- 100
2021-02-06 22:00:00 -0.7 4 Nordeste 17 Nordeste 0 -- -- 100
2021-02-06 21:00:00 -0.8 8 Nordeste 17 Nordeste 0 -- -- 100
2021-02-06 20:00:00 -0.1 6 Este 15 Nordeste 0 -- -- 100
2021-02-06 19:00:00 0.3 5 Nordeste 21 Nordeste 0 -- -- 100
2021-02-06 18:00:00 0.7 8 Nordeste 22 Norte 0 -- -- 100
2021-02-06 17:00:00 1.3 9 Nordeste 31 Nordeste 0 -- -- 100
2021-02-06 16:00:00 1.8 9 Nordeste 27 Nordeste 0 -- -- 100
2021-02-06 15:00:00 2 9 Nordeste 27 Nordeste 0 -- -- 100
2021-02-06 14:00:00 1.9 9 Nordeste 25 Norte 0 -- -- 100
2021-02-06 13:00:00 1.9 9 Nordeste 34 Nordeste 0 -- -- 100
2021-02-06 12:00:00 1.8 12 Nordeste 30 Nordeste 0 -- -- 100
2021-02-06 11:00:00 1.8 10 Nordeste 32 Nordeste 0 -- -- 100
2021-02-06 10:00:00 1.3 11 Nordeste 33 Nordeste 0 -- -- 100
2021-02-06 09:00:00 0.9 12 Nordeste 28 Nordeste 0.2 -- -- 100
2021-02-06 08:00:00 0.8 13 Nordeste 37 Nordeste 0.4 -- -- 100
2021-02-06 07:00:00 0.8 13 Nordeste 40 Este 0.2 -- -- 100
2021-02-06 06:00:00 1.1 15 Nordeste 39 Nordeste 0.4 -- -- 100
2021-02-06 05:00:00 1.4 17 Nordeste 38 Nordeste 1.2 -- -- 100
2021-02-06 04:00:00 1.9 16 Nordeste 37 Norte 0.6 -- -- 100
2021-02-06 03:00:00 2.2 14 Nordeste 38 Nordeste 0 -- -- 100
2021-02-06 02:00:00 2.1 13 Nordeste 35 Nordeste 0.2 -- -- 100
2021-02-06 01:00:00 2.2 13 Nordeste 35 Nordeste 0.6 -- -- 100
2021-02-06 00:00:00 2.4 12 Nordeste 34 Nordeste 1.6 -- -- 100
2021-02-05 23:00:00 2.4 15 Nordeste 40 Este 1 -- -- 100
2021-02-05 22:00:00 2.6 15 Nordeste 37 Este 1 -- -- 100
2021-02-05 21:00:00 2.9 13 Nordeste 31 Nordeste 0.8 -- -- 100
2021-02-05 20:00:00 3 12 Nordeste 35 Nordeste 0.6 -- -- 100
2021-02-05 19:00:00 3.2 13 Nordeste 39 Este 0.6 -- -- 100
2021-02-05 18:00:00 3.6 12 Nordeste 30 Este 0.2 -- -- 100
2021-02-05 17:00:00 3.8 11 Nordeste 30 Nordeste 0 -- -- 100
2021-02-05 16:00:00 3.9 10 Nordeste 27 Nordeste 0.2 -- -- 100
2021-02-05 15:00:00 4 10 Nordeste 26 Nordeste 0.2 -- -- 100
2021-02-05 14:00:00 3.8 8 Nordeste 24 Este 0 -- -- 100
2021-02-05 13:00:00 3.5 10 Nordeste 22 Nordeste 0 -- -- 100
2021-02-05 12:00:00 2.8 9 Nordeste 25 Nordeste 0 -- -- 100
2021-02-05 11:00:00 2.5 10 Nordeste 23 Nordeste 0 -- -- 100
2021-02-05 10:00:00 2.2 8 Este 21 Nordeste 0 -- -- 100
2021-02-05 09:00:00 2.1 9 Este 21 Nordeste 0 -- -- 100
2021-02-05 08:00:00 2.3 8 Este 19 Este 0 -- -- 100
2021-02-05 07:00:00 1.9 4 Este 8 Este 0 -- -- 100
2021-02-05 06:00:00 2.2 2 Este 9 Este 0 -- -- 100
2021-02-05 05:00:00 2.4 4 Este 9 Este 0 -- -- 100
2021-02-05 04:00:00 2.4 3 Nordeste 8 Nordeste 0 -- -- 100
2021-02-05 03:00:00 2.3 3 Este 5 Nordeste 0 -- -- 100
2021-02-05 02:00:00 3.1 4 Nordeste 6 Norte 0 -- -- 100
2021-02-05 01:00:00 3.3 3 Norte 10 Oeste 0 -- -- 100
2021-02-05 00:00:00 3.2 8 Oeste 10 Oeste 0 -- -- 100
2021-02-04 23:00:00 3.3 4 Sudoeste 10 Sur 0 -- -- 93
2021-02-04 22:00:00 3.8 4 Sudoeste 8 Sur 0 -- -- 92
2021-02-04 21:00:00 3.6 5 Sudeste 11 Sudeste 0 -- -- 95
2021-02-04 20:00:00 4.2 6 Sudeste 14 Sudeste 0 -- -- 90
2021-02-04 19:00:00 4.6 6 Sudeste 13 Sudeste 0 -- -- 86
2021-02-04 18:00:00 5.1 5 Sudeste 11 Este 0 -- -- 85
2021-02-04 17:00:00 5.7 4 Este 10 Nordeste 0 -- -- 88
2021-02-04 16:00:00 5.9 3 Este 14 Sudeste 0 -- -- 87
2021-02-04 15:00:00 5.6 4 Este 14 Sudeste 0 -- -- 90
2021-02-04 14:00:00 5.6 2 Este 12 Este 0 -- -- 94
2021-02-04 13:00:00 4.9 5 Sudeste 11 Sudeste 0 -- -- 94
2021-02-04 12:00:00 4.8 2 Sudeste 10 Sur 0 -- -- 96
2021-02-04 11:00:00 4.2 5 Sur 13 Sur 0 -- -- 95
2021-02-04 10:00:00 3.9 6 Sudeste 21 Sur 0 -- -- 93
2021-02-04 09:00:00 3.8 8 Sur 17 Sur 0 -- -- 93
2021-02-04 08:00:00 3.5 10 Sur 21 Sur 0 -- -- 94
2021-02-04 07:00:00 3.3 14 Sur 24 Sudoeste 0 -- -- 96
2021-02-04 06:00:00 3.7 12 Sur 26 Sudeste 0 -- -- 93
2021-02-04 05:00:00 3.9 6 Sudoeste 25 Sur 0 -- -- 93
2021-02-04 04:00:00 4.1 9 Sur 27 Sudoeste 0 -- -- 89
2021-02-04 03:00:00 3.9 12 Sur 32 Sudoeste 0 -- -- 92
2021-02-04 02:00:00 3.8 13 Sur 39 Sudoeste 0 -- -- 88
2021-02-04 01:00:00 4 18 Sur 53 Sur 0 -- -- 88
2021-02-04 00:00:00 3.9 18 Sur 42 Sur 0 -- -- 92
2021-02-03 23:00:00 3.9 21 Sur 45 Sur 0.2 -- -- 94
2021-02-03 22:00:00 4 19 Sur 42 Sur 0 -- -- 95
2021-02-03 21:00:00 4 22 Sur 42 Sudeste 0 -- -- 98
2021-02-03 20:00:00 3.9 17 Sur 39 Sur 0.4 -- -- 99
2021-02-03 19:00:00 4.7 13 Sudoeste 35 Sudoeste 0.6 -- -- 97
2021-02-03 18:00:00 5.3 16 Sur 35 Sur 0 -- -- 92
2021-02-03 17:00:00 6.1 13 Sur 37 Sur 0 -- -- 90
2021-02-03 16:00:00 6.1 15 Sur 40 Sur 0.2 -- -- 92
2021-02-03 15:00:00 6.4 17 Sur 38 Sudoeste 0 -- -- 89
2021-02-03 14:00:00 7.3 15 Sur 40 Sur 0 -- -- 84
2021-02-03 13:00:00 6 14 Sudoeste 36 Sudoeste 0 -- -- 89
2021-02-03 12:00:00 4.9 15 Sur 43 Sudoeste 0 -- -- 96
2021-02-03 11:00:00 4.2 16 Sur 42 Sur 0.2 -- -- 99
2021-02-03 10:00:00 4 13 Sur 38 Sur 0 -- -- 100
2021-02-03 09:00:00 3.3 14 Sudoeste 48 Sudoeste 0 -- -- 100
2021-02-03 08:00:00 2.9 18 Sur 61 Sudoeste 2.8 -- -- 100
2021-02-03 07:00:00 4.2 19 Sudoeste 65 Oeste 0.8 -- -- 100
2021-02-03 06:00:00 4.4 15 Sudoeste 50 Sudoeste 0 -- -- 100
2021-02-03 05:00:00 4.2 16 Sudoeste 51 Sudoeste 0 -- -- 100
2021-02-03 04:00:00 5.1 19 Sudoeste 54 Sudoeste 1.8 -- -- 100
2021-02-03 03:00:00 6.3 16 Oeste 53 Sudoeste 2.4 -- -- 100
2021-02-03 02:00:00 6.5 19 Sudoeste 61 Sudoeste 0 -- -- 100
2021-02-03 01:00:00 6.9 19 Sudoeste 58 Sudoeste 2.4 -- -- 100
2021-02-03 00:00:00 7.7 10 Sudoeste 42 Sur 4.2 -- -- 100
2021-02-02 23:00:00 8.1 23 Sur 68 Sur 0.8 -- -- 100
2021-02-02 22:00:00 8 27 Sur 61 Sur 1.6 -- -- 100
2021-02-02 21:00:00 7.7 29 Sur 59 Sudoeste 0.6 -- -- 100
2021-02-02 20:00:00 7.1 22 Sur 48 Sudoeste 1.2 -- -- 100
2021-02-02 19:00:00 6.9 22 Sur 47 Sur 0.8 -- -- 98
2021-02-02 18:00:00 7.1 18 Sur 43 Sudoeste 1.8 -- -- 100
2021-02-02 17:00:00 7.6 15 Sur 48 Sudoeste 3.6 -- -- 100
2021-02-02 16:00:00 8.9 14 Sur 36 Sur 0 -- -- 94
2021-02-02 15:00:00 8.6 18 Sur 42 Sur 0.4 -- -- 100
2021-02-02 14:00:00 8.5 18 Sur 50 Sudoeste 0 -- -- 98
2021-02-02 13:00:00 7.8 26 Sur 57 Sur 0.6 -- -- 100
2021-02-02 12:00:00 7.2 22 Sur 48 Sur 1.2 -- -- 100
2021-02-02 11:00:00 7.5 25 Sur 53 Sur 0.2 -- -- 100
2021-02-02 10:00:00 7.1 23 Sur 55 Sur 0.2 -- -- 100
2021-02-02 09:00:00 6.8 17 Sur 40 Sudoeste 0.6 -- -- 100
2021-02-02 08:00:00 6.8 12 Sudoeste 49 Sur 0.8 -- -- 100
2021-02-02 07:00:00 6.8 16 Sur 44 Sudoeste 0 -- -- 100
2021-02-02 06:00:00 6.6 14 Sur 40 Sudoeste 0 -- -- 100
2021-02-02 05:00:00 6.6 12 Sur 44 Sur 0 -- -- 100
2021-02-02 04:00:00 6.7 17 Sudoeste 42 Sudoeste 0 -- -- 100
2021-02-02 03:00:00 6.6 16 Sur 46 Sur 0 -- -- 100
2021-02-02 02:00:00 6.7 18 Sudoeste 48 Sur 0.2 -- -- 100
2021-02-02 01:00:00 7.2 17 Sudoeste 54 Sudoeste 0.2 -- -- 100
2021-02-02 00:00:00 7.7 13 Sudoeste 41 Sudoeste 0 -- -- 100
2021-02-01 23:00:00 7.7 14 Sudoeste 42 Sur 0.2 -- -- 100
2021-02-01 22:00:00 7.8 12 Sur 43 Sur 0 -- -- 100
2021-02-01 21:00:00 8 15 Sudoeste 53 Sudoeste 0 -- -- 100
2021-02-01 20:00:00 8 13 Sur 46 Sur 0.2 -- -- 100
2021-02-01 19:00:00 8 12 Sudoeste 43 Sudoeste 0.2 -- -- 100
2021-02-01 18:00:00 8 14 Sur 44 Sudoeste 0 -- -- 100
2021-02-01 17:00:00 7.4 9 Sur 35 Sudoeste 0 -- -- 100
2021-02-01 16:00:00 7.2 11 Sudoeste 36 Sudoeste 0 -- -- 100
2021-02-01 15:00:00 7 12 Sudoeste 33 Sudoeste 0 -- -- 100
2021-02-01 14:00:00 7 11 Sur 36 Sudoeste 0 -- -- 100
2021-02-01 13:00:00 7 11 Sur 35 Sur 0.2 -- -- 100
2021-02-01 12:00:00 6.9 9 Sur 34 Sudoeste 0 -- -- 100
2021-02-01 11:00:00 6.8 12 Sur 33 Sudoeste 0 -- -- 100
2021-02-01 10:00:00 6.2 13 Sur 37 Sudoeste 0 -- -- 100
2021-02-01 09:00:00 5.8 12 Sur 37 Sudoeste 0.4 -- -- 100
2021-02-01 08:00:00 5.7 14 Sur 40 Sur 0.4 -- -- 100
2021-02-01 07:00:00 5.8 12 Sur 38 Sur 0.4 -- -- 100
2021-02-01 06:00:00 5.9 13 Sur 35 Oeste 0 -- -- 100
2021-02-01 05:00:00 5.8 13 Sur 33 Sudoeste 0 -- -- 100
2021-02-01 04:00:00 5.7 10 Sur 40 Sudoeste 0 -- -- 100
2021-02-01 03:00:00 5.8 18 Sur 45 Sudoeste 0 -- -- 100
2021-02-01 02:00:00 5.7 10 Sur 46 Noroeste 0.2 -- -- 100
2021-02-01 01:00:00 5.8 13 Sur 41 Sur 0 -- -- 100
2021-02-01 00:00:00 5.8 13 Sudoeste 40 Sudoeste 0.2 -- -- 100
2021-01-31 23:00:00 5.8 13 Sur 53 Oeste 0 -- -- 100
2021-01-31 22:00:00 5.9 17 Sudoeste 54 Oeste 0 -- -- 100
2021-01-31 21:00:00 6.3 18 Sudoeste 61 Sudoeste 0 -- -- 100
2021-01-31 20:00:00 7 14 Sur 47 Sudoeste 0 -- -- 100
2021-01-31 19:00:00 7.4 12 Sur 59 Oeste 0 -- -- 100
2021-01-31 18:00:00 7.7 13 Sur 39 Sur 0.2 -- -- 100
2021-01-31 17:00:00 8.4 12 Sudeste 45 Sudoeste 0 -- -- 98
2021-01-31 16:00:00 9.3 15 Sur 44 Sudoeste 0 -- -- 100
2021-01-31 15:00:00 9 14 Sur 41 Sudoeste 0 -- -- 100
2021-01-31 14:00:00 8.3 12 Sur 40 Sudoeste 0 -- -- 100
2021-01-31 13:00:00 8.4 13 Sur 43 Sudoeste 0 -- -- 100
2021-01-31 12:00:00 8.2 12 Sur 32 Sudoeste 0.6 -- -- 100
2021-01-31 11:00:00 7.9 11 Sur 31 Sur 0.4 -- -- 100
2021-01-31 10:00:00 7.3 16 Sur 43 Sudoeste 0.4 -- -- 100
2021-01-31 09:00:00 6.7 13 Sur 49 Oeste 1 -- -- 100
2021-01-31 08:00:00 6.1 14 Sur 42 Sur 1.2 -- -- 100
2021-01-31 07:00:00 5.4 9 Sudoeste 35 Oeste 2 -- -- 100
2021-01-31 06:00:00 4.9 9 Sudoeste 28 Sudoeste 1.6 -- -- 100
2021-01-31 05:00:00 4.3 11 Sudoeste 34 Oeste 1.6 -- -- 100
2021-01-31 04:00:00 3.8 8 Sudoeste 33 Sur 1.4 -- -- 100
2021-01-31 03:00:00 3.2 10 Sur 30 Sudoeste 0.2 -- -- 100
2021-01-31 02:00:00 3.2 13 Sudoeste 47 Oeste 0 -- -- 100
2021-01-31 01:00:00 3.2 14 Sudoeste 41 Oeste 0.2 -- -- 100
2021-01-31 00:00:00 3 13 Oeste 55 Oeste 0 -- -- 100
2021-01-30 23:00:00 3 13 Oeste 62 Sudoeste 0.6 -- -- 100
2021-01-30 22:00:00 2.9 18 Oeste 50 Oeste 1.8 -- -- 100
2021-01-30 21:00:00 2.6 17 Oeste 58 Sudoeste 0 -- -- 100
2021-01-30 20:00:00 2.7 18 Oeste 54 Sudoeste 0.6 -- -- 100
2021-01-30 19:00:00 2.5 21 Oeste 49 Oeste 0.6 -- -- 100
2021-01-30 18:00:00 2.6 20 Oeste 53 Oeste 0.2 -- -- 100
2021-01-30 17:00:00 3 21 Oeste 64 Oeste 0 -- -- 100
2021-01-30 16:00:00 3 22 Oeste 82 Oeste 0.6 -- -- 100
2021-01-30 15:00:00 2.4 18 Oeste 63 Oeste 1.4 -- -- 100
2021-01-30 14:00:00 3.3 22 Oeste 67 Oeste 0.6 -- -- 100
2021-01-30 13:00:00 2.8 17 Sudoeste 51 Oeste 0.6 -- -- 100
2021-01-30 12:00:00 2.5 17 Sur 48 Oeste 0.2 -- -- 100
2021-01-30 11:00:00 1.8 13 Sur 51 Noroeste 1.6 -- -- 100
2021-01-30 10:00:00 2.5 12 Sur 42 Sudoeste 0.4 -- -- 100
2021-01-30 09:00:00 2.7 12 Sur 49 Oeste 2.6 -- -- 100
2021-01-30 08:00:00 3.3 18 Sur 46 Sudoeste 0.4 -- -- 100
2021-01-30 07:00:00 3.8 15 Sudoeste 45 Sudoeste 0.2 -- -- 100
2021-01-30 06:00:00 4.3 14 Sur 55 Sudoeste 0.4 -- -- 100
2021-01-30 05:00:00 4.4 13 Sudeste 48 Sudoeste 0.8 -- -- 100
2021-01-30 04:00:00 4.6 18 Sudoeste 50 Sudoeste 0.8 -- -- 100
2021-01-30 03:00:00 5.4 16 Sudoeste 44 Oeste 0 -- -- 100
2021-01-30 02:00:00 5.6 14 Sudoeste 50 Sudoeste 1.4 -- -- 100
2021-01-30 01:00:00 6.2 17 Sudoeste 59 Oeste 2.8 -- -- 100
2021-01-30 00:00:00 7.3 22 Sudoeste 54 Oeste 6 -- -- 100